sensor_id;sensor_type;location;lat;lon;timestamp;P1;durP1;ratioP1;P2;durP2;ratioP2
13445;SDS011;6795;51.232;3.764;2024-02-23T00:08:45;4.53;;;0.87;;
13445;SDS011;6795;51.232;3.764;2024-02-23T00:12:38;5.07;;;0.80;;
13445;SDS011;6795;51.232;3.764;2024-02-23T00:16:22;5.40;;;0.90;;
13445;SDS011;6795;51.232;3.764;2024-02-23T00:19:16;5.97;;;0.50;;
13445;SDS011;6795;51.232;3.764;2024-02-23T00:26:02;3.57;;;0.40;;
13445;SDS011;6795;51.232;3.764;2024-02-23T00:29:00;5.67;;;0.93;;
13445;SDS011;6795;51.232;3.764;2024-02-23T00:32:22;9.17;;;0.80;;
13445;SDS011;6795;51.232;3.764;2024-02-23T00:35:24;6.23;;;0.70;;
13445;SDS011;6795;51.232;3.764;2024-02-23T00:38:26;8.40;;;1.07;;
13445;SDS011;6795;51.232;3.764;2024-02-23T00:41:47;4.43;;;0.67;;
13445;SDS011;6795;51.232;3.764;2024-02-23T00:45:10;5.27;;;0.93;;
13445;SDS011;6795;51.232;3.764;2024-02-23T00:48:19;10.33;;;1.17;;
13445;SDS011;6795;51.232;3.764;2024-02-23T00:51:50;5.43;;;0.73;;
13445;SDS011;6795;51.232;3.764;2024-02-23T00:55:05;6.63;;;1.07;;
13445;SDS011;6795;51.232;3.764;2024-02-23T01:01:40;10.47;;;1.10;;
13445;SDS011;6795;51.232;3.764;2024-02-23T01:04:47;7.83;;;0.70;;
13445;SDS011;6795;51.232;3.764;2024-02-23T01:11:22;4.10;;;0.50;;
13445;SDS011;6795;51.232;3.764;2024-02-23T01:14:36;4.70;;;0.50;;
13445;SDS011;6795;51.232;3.764;2024-02-23T01:17:54;9.03;;;0.60;;
13445;SDS011;6795;51.232;3.764;2024-02-23T01:20:57;4.68;;;0.52;;
13445;SDS011;6795;51.232;3.764;2024-02-23T01:24:08;3.93;;;0.50;;
13445;SDS011;6795;51.232;3.764;2024-02-23T01:27:07;7.00;;;0.50;;
13445;SDS011;6795;51.232;3.764;2024-02-23T01:30:25;5.57;;;0.40;;
13445;SDS011;6795;51.232;3.764;2024-02-23T01:33:55;5.40;;;0.40;;
13445;SDS011;6795;51.232;3.764;2024-02-23T01:37:06;5.70;;;0.90;;
13445;SDS011;6795;51.232;3.764;2024-02-23T01:40:20;6.80;;;0.73;;
13445;SDS011;6795;51.232;3.764;2024-02-23T01:43:15;3.50;;;0.40;;
13445;SDS011;6795;51.232;3.764;2024-02-23T01:46:44;4.93;;;0.47;;
13445;SDS011;6795;51.232;3.764;2024-02-23T01:49:47;3.57;;;0.40;;
13445;SDS011;6795;51.232;3.764;2024-02-23T01:53:33;4.97;;;0.80;;
13445;SDS011;6795;51.232;3.764;2024-02-23T01:56:26;3.73;;;0.43;;
13445;SDS011;6795;51.232;3.764;2024-02-23T02:01:54;7.17;;;0.50;;
13445;SDS011;6795;51.232;3.764;2024-02-23T02:03:12;6.73;;;0.50;;
13445;SDS011;6795;51.232;3.764;2024-02-23T02:06:24;5.78;;;0.57;;
13445;SDS011;6795;51.232;3.764;2024-02-23T02:09:40;4.20;;;0.47;;
13445;SDS011;6795;51.232;3.764;2024-02-23T02:13:26;4.20;;;0.43;;
13445;SDS011;6795;51.232;3.764;2024-02-23T02:16:31;5.23;;;0.80;;
13445;SDS011;6795;51.232;3.764;2024-02-23T02:19:49;7.23;;;0.70;;
13445;SDS011;6795;51.232;3.764;2024-02-23T02:26:03;4.50;;;0.97;;
13445;SDS011;6795;51.232;3.764;2024-02-23T02:29:17;4.53;;;0.63;;
13445;SDS011;6795;51.232;3.764;2024-02-23T02:32:28;4.27;;;0.40;;
13445;SDS011;6795;51.232;3.764;2024-02-23T02:35:24;8.77;;;0.63;;
13445;SDS011;6795;51.232;3.764;2024-02-23T02:38:36;5.60;;;0.53;;
13445;SDS011;6795;51.232;3.764;2024-02-23T02:48:41;10.13;;;0.50;;
13445;SDS011;6795;51.232;3.764;2024-02-23T02:51:49;5.33;;;0.50;;
13445;SDS011;6795;51.232;3.764;2024-02-23T02:55:07;4.17;;;0.70;;
13445;SDS011;6795;51.232;3.764;2024-02-23T02:58:00;5.22;;;0.70;;
13445;SDS011;6795;51.232;3.764;2024-02-23T03:01:22;6.17;;;0.60;;
13445;SDS011;6795;51.232;3.764;2024-02-23T03:08:36;6.43;;;0.70;;
13445;SDS011;6795;51.232;3.764;2024-02-23T03:11:33;5.47;;;0.50;;
13445;SDS011;6795;51.232;3.764;2024-02-23T03:14:50;5.73;;;0.43;;
13445;SDS011;6795;51.232;3.764;2024-02-23T03:18:42;5.95;;;0.65;;
13445;SDS011;6795;51.232;3.764;2024-02-23T03:21:49;6.23;;;0.60;;
13445;SDS011;6795;51.232;3.764;2024-02-23T03:25:32;7.37;;;0.80;;
13445;SDS011;6795;51.232;3.764;2024-02-23T03:28:57;3.57;;;0.60;;
13445;SDS011;6795;51.232;3.764;2024-02-23T03:32:17;4.47;;;0.50;;
13445;SDS011;6795;51.232;3.764;2024-02-23T03:35:34;4.93;;;0.90;;
13445;SDS011;6795;51.232;3.764;2024-02-23T03:38:44;5.47;;;1.02;;
13445;SDS011;6795;51.232;3.764;2024-02-23T03:45:18;2.40;;;0.43;;
13445;SDS011;6795;51.232;3.764;2024-02-23T03:48:12;6.47;;;1.00;;
13445;SDS011;6795;51.232;3.764;2024-02-23T03:51:09;6.63;;;0.60;;
13445;SDS011;6795;51.232;3.764;2024-02-23T03:54:34;5.03;;;0.67;;
13445;SDS011;6795;51.232;3.764;2024-02-23T03:57:44;3.05;;;0.70;;
13445;SDS011;6795;51.232;3.764;2024-02-23T04:01:12;9.40;;;0.87;;
13445;SDS011;6795;51.232;3.764;2024-02-23T04:04:10;4.50;;;0.60;;
13445;SDS011;6795;51.232;3.764;2024-02-23T04:07:25;3.93;;;0.60;;
13445;SDS011;6795;51.232;3.764;2024-02-23T04:10:32;3.80;;;0.33;;
13445;SDS011;6795;51.232;3.764;2024-02-23T04:14:07;5.03;;;0.70;;
13445;SDS011;6795;51.232;3.764;2024-02-23T04:17:34;6.13;;;0.70;;
13445;SDS011;6795;51.232;3.764;2024-02-23T04:20:34;6.87;;;0.60;;
13445;SDS011;6795;51.232;3.764;2024-02-23T04:23:42;3.57;;;0.53;;
13445;SDS011;6795;51.232;3.764;2024-02-23T04:26:52;3.13;;;0.40;;
13445;SDS011;6795;51.232;3.764;2024-02-23T04:30:22;6.17;;;0.97;;
13445;SDS011;6795;51.232;3.764;2024-02-23T04:36:52;5.25;;;0.55;;
13445;SDS011;6795;51.232;3.764;2024-02-23T04:40:10;5.57;;;0.87;;
13445;SDS011;6795;51.232;3.764;2024-02-23T04:43:16;2.90;;;0.85;;
13445;SDS011;6795;51.232;3.764;2024-02-23T04:46:30;7.53;;;0.60;;
13445;SDS011;6795;51.232;3.764;2024-02-23T04:49:29;3.50;;;0.50;;
13445;SDS011;6795;51.232;3.764;2024-02-23T05:03:58;6.63;;;1.10;;
13445;SDS011;6795;51.232;3.764;2024-02-23T05:07:12;8.43;;;0.70;;
13445;SDS011;6795;51.232;3.764;2024-02-23T05:10:40;7.53;;;1.10;;
13445;SDS011;6795;51.232;3.764;2024-02-23T05:17:13;3.73;;;0.60;;
13445;SDS011;6795;51.232;3.764;2024-02-23T05:20:36;6.53;;;0.60;;
13445;SDS011;6795;51.232;3.764;2024-02-23T05:23:51;5.57;;;0.60;;
13445;SDS011;6795;51.232;3.764;2024-02-23T05:27:55;3.87;;;0.50;;
13445;SDS011;6795;51.232;3.764;2024-02-23T05:30:22;4.17;;;0.80;;
13445;SDS011;6795;51.232;3.764;2024-02-23T05:33:27;2.70;;;0.47;;
13445;SDS011;6795;51.232;3.764;2024-02-23T05:40:32;7.27;;;0.50;;
13445;SDS011;6795;51.232;3.764;2024-02-23T05:43:45;4.67;;;0.30;;
13445;SDS011;6795;51.232;3.764;2024-02-23T05:46:37;5.40;;;0.47;;
13445;SDS011;6795;51.232;3.764;2024-02-23T05:53:16;4.33;;;0.80;;
13445;SDS011;6795;51.232;3.764;2024-02-23T05:56:29;8.27;;;0.67;;
13445;SDS011;6795;51.232;3.764;2024-02-23T05:59:52;7.37;;;0.53;;
13445;SDS011;6795;51.232;3.764;2024-02-23T06:03:13;6.33;;;1.30;;
13445;SDS011;6795;51.232;3.764;2024-02-23T06:06:30;4.97;;;0.57;;
13445;SDS011;6795;51.232;3.764;2024-02-23T06:09:45;3.50;;;0.70;;
13445;SDS011;6795;51.232;3.764;2024-02-23T06:12:43;5.13;;;0.80;;
13445;SDS011;6795;51.232;3.764;2024-02-23T06:16:13;5.50;;;0.80;;
13445;SDS011;6795;51.232;3.764;2024-02-23T06:19:26;3.50;;;0.60;;
13445;SDS011;6795;51.232;3.764;2024-02-23T06:22:48;7.77;;;1.70;;
13445;SDS011;6795;51.232;3.764;2024-02-23T06:26:19;2.30;;;0.80;;
13445;SDS011;6795;51.232;3.764;2024-02-23T06:33:06;7.15;;;0.68;;
13445;SDS011;6795;51.232;3.764;2024-02-23T06:36:28;2.43;;;0.40;;
13445;SDS011;6795;51.232;3.764;2024-02-23T06:39:57;8.20;;;0.87;;
13445;SDS011;6795;51.232;3.764;2024-02-23T06:43:30;4.60;;;0.50;;
13445;SDS011;6795;51.232;3.764;2024-02-23T06:46:27;2.27;;;0.40;;
13445;SDS011;6795;51.232;3.764;2024-02-23T06:49:52;4.07;;;0.60;;
13445;SDS011;6795;51.232;3.764;2024-02-23T06:53:28;6.50;;;0.50;;
13445;SDS011;6795;51.232;3.764;2024-02-23T06:56:21;7.03;;;1.13;;
13445;SDS011;6795;51.232;3.764;2024-02-23T06:59:45;6.00;;;0.70;;
13445;SDS011;6795;51.232;3.764;2024-02-23T07:02:51;4.70;;;0.50;;
13445;SDS011;6795;51.232;3.764;2024-02-23T07:06:02;4.43;;;0.60;;
13445;SDS011;6795;51.232;3.764;2024-02-23T07:09:12;6.43;;;0.50;;
13445;SDS011;6795;51.232;3.764;2024-02-23T07:12:17;6.30;;;0.47;;
13445;SDS011;6795;51.232;3.764;2024-02-23T07:15:36;6.30;;;0.70;;
13445;SDS011;6795;51.232;3.764;2024-02-23T07:18:43;3.63;;;0.93;;
13445;SDS011;6795;51.232;3.764;2024-02-23T07:22:47;4.22;;;0.50;;
13445;SDS011;6795;51.232;3.764;2024-02-23T07:26:00;3.93;;;0.83;;
13445;SDS011;6795;51.232;3.764;2024-02-23T07:29:36;7.88;;;1.23;;
13445;SDS011;6795;51.232;3.764;2024-02-23T07:32:48;2.87;;;0.53;;
13445;SDS011;6795;51.232;3.764;2024-02-23T07:36:15;6.63;;;1.83;;
13445;SDS011;6795;51.232;3.764;2024-02-23T07:53:03;8.32;;;0.70;;
13445;SDS011;6795;51.232;3.764;2024-02-23T07:55:58;6.07;;;0.57;;
13445;SDS011;6795;51.232;3.764;2024-02-23T07:59:07;6.57;;;0.55;;
13445;SDS011;6795;51.232;3.764;2024-02-23T08:02:08;4.23;;;0.60;;
13445;SDS011;6795;51.232;3.764;2024-02-23T08:05:22;8.20;;;1.00;;
13445;SDS011;6795;51.232;3.764;2024-02-23T08:11:37;5.50;;;0.77;;
13445;SDS011;6795;51.232;3.764;2024-02-23T08:15:02;4.53;;;0.45;;
13445;SDS011;6795;51.232;3.764;2024-02-23T08:18:48;5.70;;;0.95;;
13445;SDS011;6795;51.232;3.764;2024-02-23T08:22:01;5.03;;;0.43;;
13445;SDS011;6795;51.232;3.764;2024-02-23T08:25:05;9.45;;;0.50;;
13445;SDS011;6795;51.232;3.764;2024-02-23T08:35:08;7.20;;;0.45;;
13445;SDS011;6795;51.232;3.764;2024-02-23T08:38:32;8.60;;;1.50;;
13445;SDS011;6795;51.232;3.764;2024-02-23T08:41:57;3.22;;;0.50;;
13445;SDS011;6795;51.232;3.764;2024-02-23T08:44:53;7.15;;;1.23;;
13445;SDS011;6795;51.232;3.764;2024-02-23T08:52:01;2.33;;;0.30;;
13445;SDS011;6795;51.232;3.764;2024-02-23T08:55:16;3.60;;;0.38;;
13445;SDS011;6795;51.232;3.764;2024-02-23T08:58:57;4.97;;;0.95;;
13445;SDS011;6795;51.232;3.764;2024-02-23T09:02:31;1.50;;;0.30;;
13445;SDS011;6795;51.232;3.764;2024-02-23T09:05:39;1.83;;;0.30;;
13445;SDS011;6795;51.232;3.764;2024-02-23T09:11:58;2.60;;;0.45;;
13445;SDS011;6795;51.232;3.764;2024-02-23T09:15:07;4.10;;;0.40;;
13445;SDS011;6795;51.232;3.764;2024-02-23T09:18:24;2.25;;;0.20;;
13445;SDS011;6795;51.232;3.764;2024-02-23T09:21:43;3.55;;;0.40;;
13445;SDS011;6795;51.232;3.764;2024-02-23T09:25:13;5.00;;;0.82;;
13445;SDS011;6795;51.232;3.764;2024-02-23T09:28:37;6.15;;;0.40;;
13445;SDS011;6795;51.232;3.764;2024-02-23T09:31:46;5.15;;;0.57;;
13445;SDS011;6795;51.232;3.764;2024-02-23T09:34:45;3.78;;;0.30;;
13445;SDS011;6795;51.232;3.764;2024-02-23T09:37:51;1.58;;;0.40;;
13445;SDS011;6795;51.232;3.764;2024-02-23T09:41:17;3.20;;;0.55;;
13445;SDS011;6795;51.232;3.764;2024-02-23T09:44:57;3.35;;;0.40;;
13445;SDS011;6795;51.232;3.764;2024-02-23T09:47:59;1.05;;;0.30;;
13445;SDS011;6795;51.232;3.764;2024-02-23T09:51:03;3.63;;;0.50;;
13445;SDS011;6795;51.232;3.764;2024-02-23T09:54:04;2.97;;;0.45;;
13445;SDS011;6795;51.232;3.764;2024-02-23T09:57:38;2.05;;;0.30;;
13445;SDS011;6795;51.232;3.764;2024-02-23T10:04:56;0.77;;;0.25;;
13445;SDS011;6795;51.232;3.764;2024-02-23T10:08:13;2.35;;;0.32;;
13445;SDS011;6795;51.232;3.764;2024-02-23T10:11:33;2.03;;;0.30;;
13445;SDS011;6795;51.232;3.764;2024-02-23T10:14:38;3.83;;;0.63;;
13445;SDS011;6795;51.232;3.764;2024-02-23T10:17:42;2.70;;;0.40;;
13445;SDS011;6795;51.232;3.764;2024-02-23T10:25:18;2.22;;;0.20;;
13445;SDS011;6795;51.232;3.764;2024-02-23T10:28:49;2.17;;;0.32;;
13445;SDS011;6795;51.232;3.764;2024-02-23T10:32:05;6.32;;;0.40;;
13445;SDS011;6795;51.232;3.764;2024-02-23T10:35:13;7.32;;;0.38;;
13445;SDS011;6795;51.232;3.764;2024-02-23T10:42:52;4.30;;;0.40;;
13445;SDS011;6795;51.232;3.764;2024-02-23T10:46:04;1.30;;;0.30;;
13445;SDS011;6795;51.232;3.764;2024-02-23T10:49:38;5.95;;;0.50;;
13445;SDS011;6795;51.232;3.764;2024-02-23T10:53:01;3.88;;;0.28;;
13445;SDS011;6795;51.232;3.764;2024-02-23T10:56:26;0.82;;;0.20;;
13445;SDS011;6795;51.232;3.764;2024-02-23T10:59:27;5.22;;;0.30;;
13445;SDS011;6795;51.232;3.764;2024-02-23T11:02:50;2.10;;;0.30;;
13445;SDS011;6795;51.232;3.764;2024-02-23T11:05:59;2.30;;;0.35;;
13445;SDS011;6795;51.232;3.764;2024-02-23T11:09:24;2.03;;;0.20;;
13445;SDS011;6795;51.232;3.764;2024-02-23T11:12:49;3.50;;;0.30;;
13445;SDS011;6795;51.232;3.764;2024-02-23T11:16:45;1.88;;;0.40;;
13445;SDS011;6795;51.232;3.764;2024-02-23T11:20:02;2.75;;;0.20;;
13445;SDS011;6795;51.232;3.764;2024-02-23T11:30:40;4.07;;;0.20;;
13445;SDS011;6795;51.232;3.764;2024-02-23T11:33:52;0.70;;;0.13;;
13445;SDS011;6795;51.232;3.764;2024-02-23T11:37:11;1.55;;;0.20;;
13445;SDS011;6795;51.232;3.764;2024-02-23T11:40:23;0.40;;;0.10;;
13445;SDS011;6795;51.232;3.764;2024-02-23T11:43:32;3.20;;;0.13;;
13445;SDS011;6795;51.232;3.764;2024-02-23T11:46:43;5.20;;;0.20;;
13445;SDS011;6795;51.232;3.764;2024-02-23T11:50:22;0.20;;;0.10;;
13445;SDS011;6795;51.232;3.764;2024-02-23T11:53:35;0.55;;;0.10;;
13445;SDS011;6795;51.232;3.764;2024-02-23T11:56:52;4.50;;;0.20;;
13445;SDS011;6795;51.232;3.764;2024-02-23T12:00:33;2.60;;;0.55;;
13445;SDS011;6795;51.232;3.764;2024-02-23T12:03:25;1.27;;;0.20;;
13445;SDS011;6795;51.232;3.764;2024-02-23T12:10:24;0.20;;;0.10;;
13445;SDS011;6795;51.232;3.764;2024-02-23T12:13:33;1.95;;;0.40;;
13445;SDS011;6795;51.232;3.764;2024-02-23T12:16:43;0.95;;;0.20;;
13445;SDS011;6795;51.232;3.764;2024-02-23T12:19:52;1.27;;;0.10;;
13445;SDS011;6795;51.232;3.764;2024-02-23T12:23:25;2.05;;;0.20;;
13445;SDS011;6795;51.232;3.764;2024-02-23T12:26:40;0.10;;;0.00;;
13445;SDS011;6795;51.232;3.764;2024-02-23T12:30:12;1.13;;;0.10;;
13445;SDS011;6795;51.232;3.764;2024-02-23T12:33:40;0.10;;;0.10;;
13445;SDS011;6795;51.232;3.764;2024-02-23T12:40:57;0.20;;;0.20;;
13445;SDS011;6795;51.232;3.764;2024-02-23T12:44:08;1.85;;;0.50;;
13445;SDS011;6795;51.232;3.764;2024-02-23T12:47:39;1.08;;;0.20;;
13445;SDS011;6795;51.232;3.764;2024-02-23T12:50:42;1.23;;;0.20;;
13445;SDS011;6795;51.232;3.764;2024-02-23T12:54:34;1.30;;;0.20;;
13445;SDS011;6795;51.232;3.764;2024-02-23T13:01:37;2.28;;;0.20;;
13445;SDS011;6795;51.232;3.764;2024-02-23T13:05:00;0.20;;;0.17;;
13445;SDS011;6795;51.232;3.764;2024-02-23T13:08:37;0.88;;;0.20;;
13445;SDS011;6795;51.232;3.764;2024-02-23T13:11:29;3.97;;;0.20;;
13445;SDS011;6795;51.232;3.764;2024-02-23T13:22:37;3.78;;;0.20;;
13445;SDS011;6795;51.232;3.764;2024-02-23T13:26:29;7.95;;;0.63;;
13445;SDS011;6795;51.232;3.764;2024-02-23T13:29:56;2.78;;;0.20;;
13445;SDS011;6795;51.232;3.764;2024-02-23T13:33:44;3.33;;;0.30;;
13445;SDS011;6795;51.232;3.764;2024-02-23T13:41:03;0.35;;;0.10;;
13445;SDS011;6795;51.232;3.764;2024-02-23T13:48:04;2.92;;;0.60;;
13445;SDS011;6795;51.232;3.764;2024-02-23T13:51:17;3.25;;;0.30;;
13445;SDS011;6795;51.232;3.764;2024-02-23T13:54:30;6.05;;;0.30;;
13445;SDS011;6795;51.232;3.764;2024-02-23T14:01:33;4.22;;;0.30;;
13445;SDS011;6795;51.232;3.764;2024-02-23T14:05:01;2.80;;;0.40;;
13445;SDS011;6795;51.232;3.764;2024-02-23T14:08:53;4.40;;;0.40;;
13445;SDS011;6795;51.232;3.764;2024-02-23T14:12:23;5.00;;;0.40;;
13445;SDS011;6795;51.232;3.764;2024-02-23T14:19:21;1.77;;;0.40;;
13445;SDS011;6795;51.232;3.764;2024-02-23T14:22:56;0.75;;;0.13;;
13445;SDS011;6795;51.232;3.764;2024-02-23T14:25:57;0.47;;;0.20;;
13445;SDS011;6795;51.232;3.764;2024-02-23T14:29:29;0.85;;;0.10;;
13445;SDS011;6795;51.232;3.764;2024-02-23T14:37:00;1.65;;;0.10;;
13445;SDS011;6795;51.232;3.764;2024-02-23T14:40:42;3.50;;;0.20;;
13445;SDS011;6795;51.232;3.764;2024-02-23T14:43:38;1.08;;;0.20;;
13445;SDS011;6795;51.232;3.764;2024-02-23T14:47:27;0.20;;;0.10;;
13445;SDS011;6795;51.232;3.764;2024-02-23T14:58:23;1.90;;;0.20;;
13445;SDS011;6795;51.232;3.764;2024-02-23T15:01:39;1.50;;;0.20;;
13445;SDS011;6795;51.232;3.764;2024-02-23T15:04:53;1.42;;;0.30;;
13445;SDS011;6795;51.232;3.764;2024-02-23T15:08:44;1.10;;;0.20;;
13445;SDS011;6795;51.232;3.764;2024-02-23T15:12:16;0.47;;;0.20;;
13445;SDS011;6795;51.232;3.764;2024-02-23T15:19:11;0.75;;;0.20;;
13445;SDS011;6795;51.232;3.764;2024-02-23T15:22:31;1.08;;;0.20;;
13445;SDS011;6795;51.232;3.764;2024-02-23T15:25:48;1.55;;;0.10;;
13445;SDS011;6795;51.232;3.764;2024-02-23T15:28:54;1.90;;;0.20;;
13445;SDS011;6795;51.232;3.764;2024-02-23T15:32:16;1.92;;;0.20;;
13445;SDS011;6795;51.232;3.764;2024-02-23T15:36:12;2.08;;;0.50;;
13445;SDS011;6795;51.232;3.764;2024-02-23T15:39:03;1.67;;;0.30;;
13445;SDS011;6795;51.232;3.764;2024-02-23T15:42:48;1.30;;;0.30;;
13445;SDS011;6795;51.232;3.764;2024-02-23T15:49:52;1.10;;;0.60;;
13445;SDS011;6795;51.232;3.764;2024-02-23T15:52:51;1.40;;;0.32;;
13445;SDS011;6795;51.232;3.764;2024-02-23T15:56:02;2.72;;;0.50;;
13445;SDS011;6795;51.232;3.764;2024-02-23T15:59:20;2.35;;;0.60;;
13445;SDS011;6795;51.232;3.764;2024-02-23T16:02:45;3.28;;;0.30;;
13445;SDS011;6795;51.232;3.764;2024-02-23T16:10:29;0.52;;;0.30;;
13445;SDS011;6795;51.232;3.764;2024-02-23T16:13:29;1.65;;;0.38;;
13445;SDS011;6795;51.232;3.764;2024-02-23T16:16:57;0.55;;;0.40;;
13445;SDS011;6795;51.232;3.764;2024-02-23T16:20:02;0.65;;;0.30;;
13445;SDS011;6795;51.232;3.764;2024-02-23T16:27:26;0.40;;;0.30;;
13445;SDS011;6795;51.232;3.764;2024-02-23T16:30:30;0.57;;;0.30;;
13445;SDS011;6795;51.232;3.764;2024-02-23T16:34:12;1.40;;;0.40;;
13445;SDS011;6795;51.232;3.764;2024-02-23T16:37:38;0.85;;;0.30;;
13445;SDS011;6795;51.232;3.764;2024-02-23T16:40:59;3.92;;;0.40;;
13445;SDS011;6795;51.232;3.764;2024-02-23T16:44:24;1.80;;;0.40;;
13445;SDS011;6795;51.232;3.764;2024-02-23T16:47:42;1.52;;;0.35;;
13445;SDS011;6795;51.232;3.764;2024-02-23T16:51:36;1.58;;;0.40;;
13445;SDS011;6795;51.232;3.764;2024-02-23T16:55:11;0.68;;;0.50;;
13445;SDS011;6795;51.232;3.764;2024-02-23T16:58:23;8.50;;;3.88;;
13445;SDS011;6795;51.232;3.764;2024-02-23T17:01:26;0.88;;;0.50;;
13445;SDS011;6795;51.232;3.764;2024-02-23T17:04:54;1.40;;;0.40;;
13445;SDS011;6795;51.232;3.764;2024-02-23T17:08:32;1.00;;;0.30;;
13445;SDS011;6795;51.232;3.764;2024-02-23T17:11:52;4.38;;;1.98;;
13445;SDS011;6795;51.232;3.764;2024-02-23T17:18:45;0.45;;;0.43;;
13445;SDS011;6795;51.232;3.764;2024-02-23T17:22:02;0.88;;;0.17;;
13445;SDS011;6795;51.232;3.764;2024-02-23T17:25:26;0.75;;;0.10;;
13445;SDS011;6795;51.232;3.764;2024-02-23T17:28:34;0.70;;;0.10;;
13445;SDS011;6795;51.232;3.764;2024-02-23T17:39:54;1.58;;;0.30;;
13445;SDS011;6795;51.232;3.764;2024-02-23T17:43:10;0.40;;;0.30;;
13445;SDS011;6795;51.232;3.764;2024-02-23T17:46:10;0.40;;;0.40;;
13445;SDS011;6795;51.232;3.764;2024-02-23T17:49:33;0.60;;;0.35;;
13445;SDS011;6795;51.232;3.764;2024-02-23T17:52:48;1.80;;;1.70;;
13445;SDS011;6795;51.232;3.764;2024-02-23T17:56:31;0.95;;;0.70;;
13445;SDS011;6795;51.232;3.764;2024-02-23T17:59:59;0.52;;;0.40;;
13445;SDS011;6795;51.232;3.764;2024-02-23T18:03:31;1.30;;;0.60;;
13445;SDS011;6795;51.232;3.764;2024-02-23T18:06:47;0.50;;;0.40;;
13445;SDS011;6795;51.232;3.764;2024-02-23T18:10:13;0.47;;;0.33;;
13445;SDS011;6795;51.232;3.764;2024-02-23T18:17:00;0.40;;;0.40;;
13445;SDS011;6795;51.232;3.764;2024-02-23T18:20:27;0.75;;;0.50;;
13445;SDS011;6795;51.232;3.764;2024-02-23T18:23:58;1.23;;;0.45;;
13445;SDS011;6795;51.232;3.764;2024-02-23T18:27:33;0.85;;;0.50;;
13445;SDS011;6795;51.232;3.764;2024-02-23T18:31:23;0.50;;;0.40;;
13445;SDS011;6795;51.232;3.764;2024-02-23T18:34:49;0.70;;;0.70;;
13445;SDS011;6795;51.232;3.764;2024-02-23T18:38:44;0.70;;;0.70;;
13445;SDS011;6795;51.232;3.764;2024-02-23T18:42:36;0.50;;;0.50;;
13445;SDS011;6795;51.232;3.764;2024-02-23T18:46:33;2.03;;;1.00;;
13445;SDS011;6795;51.232;3.764;2024-02-23T18:49:50;2.15;;;0.95;;
13445;SDS011;6795;51.232;3.764;2024-02-23T18:53:13;1.37;;;1.07;;
13445;SDS011;6795;51.232;3.764;2024-02-23T18:56:20;1.05;;;0.70;;
13445;SDS011;6795;51.232;3.764;2024-02-23T18:59:44;1.25;;;0.70;;
13445;SDS011;6795;51.232;3.764;2024-02-23T19:03:14;1.45;;;0.50;;
13445;SDS011;6795;51.232;3.764;2024-02-23T19:09:53;1.02;;;0.35;;
13445;SDS011;6795;51.232;3.764;2024-02-23T19:13:12;2.73;;;0.30;;
13445;SDS011;6795;51.232;3.764;2024-02-23T19:16:36;2.60;;;0.60;;
13445;SDS011;6795;51.232;3.764;2024-02-23T19:20:07;0.40;;;0.30;;
13445;SDS011;6795;51.232;3.764;2024-02-23T19:26:56;0.30;;;0.30;;
13445;SDS011;6795;51.232;3.764;2024-02-23T19:30:05;1.10;;;0.20;;
13445;SDS011;6795;51.232;3.764;2024-02-23T19:33:16;0.38;;;0.30;;
13445;SDS011;6795;51.232;3.764;2024-02-23T19:37:02;0.73;;;0.50;;
13445;SDS011;6795;51.232;3.764;2024-02-23T19:39:57;0.77;;;0.43;;
13445;SDS011;6795;51.232;3.764;2024-02-23T19:46:40;2.00;;;0.63;;
13445;SDS011;6795;51.232;3.764;2024-02-23T19:49:41;1.97;;;0.93;;
13445;SDS011;6795;51.232;3.764;2024-02-23T19:53:19;1.83;;;0.97;;
13445;SDS011;6795;51.232;3.764;2024-02-23T19:56:19;1.13;;;1.02;;
13445;SDS011;6795;51.232;3.764;2024-02-23T19:59:32;0.80;;;0.80;;
13445;SDS011;6795;51.232;3.764;2024-02-23T20:02:40;3.30;;;2.13;;
13445;SDS011;6795;51.232;3.764;2024-02-23T20:05:45;4.63;;;1.70;;
13445;SDS011;6795;51.232;3.764;2024-02-23T20:13:32;1.70;;;1.50;;
13445;SDS011;6795;51.232;3.764;2024-02-23T20:16:30;1.47;;;1.37;;
13445;SDS011;6795;51.232;3.764;2024-02-23T20:19:58;5.13;;;2.10;;
13445;SDS011;6795;51.232;3.764;2024-02-23T20:23:47;1.80;;;1.70;;
13445;SDS011;6795;51.232;3.764;2024-02-23T20:26:39;4.53;;;2.10;;
13445;SDS011;6795;51.232;3.764;2024-02-23T20:29:48;2.40;;;2.20;;
13445;SDS011;6795;51.232;3.764;2024-02-23T20:32:38;3.47;;;2.50;;
13445;SDS011;6795;51.232;3.764;2024-02-23T20:38:56;2.30;;;2.10;;
13445;SDS011;6795;51.232;3.764;2024-02-23T20:42:01;1.60;;;1.50;;
13445;SDS011;6795;51.232;3.764;2024-02-23T20:44:57;2.20;;;1.47;;
13445;SDS011;6795;51.232;3.764;2024-02-23T20:48:04;4.30;;;1.63;;
13445;SDS011;6795;51.232;3.764;2024-02-23T20:51:38;4.90;;;2.50;;
13445;SDS011;6795;51.232;3.764;2024-02-23T21:05:27;6.07;;;2.63;;
13445;SDS011;6795;51.232;3.764;2024-02-23T21:09:00;6.03;;;3.50;;
13445;SDS011;6795;51.232;3.764;2024-02-23T21:12:26;4.97;;;3.97;;
13445;SDS011;6795;51.232;3.764;2024-02-23T21:15:41;5.57;;;3.20;;
13445;SDS011;6795;51.232;3.764;2024-02-23T21:18:56;6.67;;;3.67;;
13445;SDS011;6795;51.232;3.764;2024-02-23T21:21:57;8.30;;;3.40;;
13445;SDS011;6795;51.232;3.764;2024-02-23T21:25:36;7.30;;;3.13;;
13445;SDS011;6795;51.232;3.764;2024-02-23T21:29:03;5.70;;;2.50;;
13445;SDS011;6795;51.232;3.764;2024-02-23T21:47:43;6.20;;;4.20;;
13445;SDS011;6795;51.232;3.764;2024-02-23T21:51:16;6.03;;;3.30;;
13445;SDS011;6795;51.232;3.764;2024-02-23T21:54:41;9.40;;;3.20;;
13445;SDS011;6795;51.232;3.764;2024-02-23T21:57:54;8.40;;;3.60;;
13445;SDS011;6795;51.232;3.764;2024-02-23T22:04:47;9.47;;;3.70;;
13445;SDS011;6795;51.232;3.764;2024-02-23T22:07:54;7.83;;;4.17;;
13445;SDS011;6795;51.232;3.764;2024-02-23T22:11:18;7.43;;;3.87;;
13445;SDS011;6795;51.232;3.764;2024-02-23T22:14:29;9.90;;;7.53;;
13445;SDS011;6795;51.232;3.764;2024-02-23T22:17:54;7.10;;;4.50;;
13445;SDS011;6795;51.232;3.764;2024-02-23T22:21:41;7.83;;;3.90;;
13445;SDS011;6795;51.232;3.764;2024-02-23T22:24:33;7.60;;;3.57;;
13445;SDS011;6795;51.232;3.764;2024-02-23T22:27:30;5.43;;;2.53;;
13445;SDS011;6795;51.232;3.764;2024-02-23T22:31:22;5.53;;;3.07;;
13445;SDS011;6795;51.232;3.764;2024-02-23T22:34:25;7.30;;;3.77;;
13445;SDS011;6795;51.232;3.764;2024-02-23T22:37:42;8.67;;;4.30;;
13445;SDS011;6795;51.232;3.764;2024-02-23T22:43:58;8.30;;;3.50;;
13445;SDS011;6795;51.232;3.764;2024-02-23T22:47:15;17.60;;;10.10;;
13445;SDS011;6795;51.232;3.764;2024-02-23T22:50:29;5.93;;;3.40;;
13445;SDS011;6795;51.232;3.764;2024-02-23T22:53:55;6.70;;;3.13;;
13445;SDS011;6795;51.232;3.764;2024-02-23T22:57:34;8.90;;;3.30;;
13445;SDS011;6795;51.232;3.764;2024-02-23T23:00:19;7.37;;;2.97;;
13445;SDS011;6795;51.232;3.764;2024-02-23T23:03:44;7.27;;;3.30;;
13445;SDS011;6795;51.232;3.764;2024-02-23T23:07:18;8.47;;;2.90;;
13445;SDS011;6795;51.232;3.764;2024-02-23T23:31:11;7.27;;;3.87;;
13445;SDS011;6795;51.232;3.764;2024-02-23T23:34:19;6.70;;;3.40;;
13445;SDS011;6795;51.232;3.764;2024-02-23T23:37:56;6.67;;;3.50;;
13445;SDS011;6795;51.232;3.764;2024-02-23T23:41:26;5.00;;;3.50;;
13445;SDS011;6795;51.232;3.764;2024-02-23T23:44:39;5.20;;;3.30;;
13445;SDS011;6795;51.232;3.764;2024-02-23T23:51:51;7.30;;;3.77;;
13445;SDS011;6795;51.232;3.764;2024-02-23T23:55:27;5.93;;;3.70;;
13445;SDS011;6795;51.232;3.764;2024-02-23T23:58:39;9.47;;;4.23;;
